ベロオリゾンテ の空港の天気 - METARとTAF

タンクレド・ネヴェス国際空港 ( SBCF / CNF ) - ブラジル ミナスジェライス州ベロオリゾンテ
飛行場実況気象(Metar)
観測時間05/27 22:00 BRT (05/28 01:00 UTC)
風向・風速静穏 0m/s
視程10km以上
天気現象
なし
気温14℃
湿度72%
気圧1019hPa
METARSBCF 280100Z 00000KT CAVOK 14/09 Q1019
過去の天気等 Google飛行場航空写真 Wunderground天気予報

過去48時間のMETAR

飛行場予報(TAF)
発表時間: 5/27 18:00 BRT (5/27 21:00 UTC)
予報対象時間: 27日21時 BRT ~ 28日21時 BRT
風向・風速西 3m/s
視程10km以上
なし
28日7時 BRT ~ 28日9時 BRT に徐々に
風向・風速東 3m/s
TAF SBCF 272100Z 2800/2824 26005KT CAVOK TN10/2806Z TX22/2817Z
BECMG 2810/2812 09006KT RMK PEG